createdAt,value
2023-01-19T00:00:26.380Z,96.05
2023-01-19T00:01:26.273Z,96.64
2023-01-19T00:02:26.290Z,96.79
2023-01-19T00:03:26.289Z,96.22
2023-01-19T00:04:26.862Z,96.11
2023-01-19T00:05:27.248Z,96.22
2023-01-19T00:06:26.334Z,96.32
2023-01-19T00:07:26.234Z,96.00
2023-01-19T00:08:26.224Z,96.11
2023-01-19T00:09:26.219Z,95.79
2023-01-19T00:10:26.206Z,96.32
2023-01-19T00:11:26.246Z,96.32
2023-01-19T00:12:26.185Z,95.90
2023-01-19T00:13:26.190Z,95.75
2023-01-19T00:14:26.181Z,95.48
2023-01-19T00:15:26.178Z,95.64
2023-01-19T00:16:26.235Z,95.22
2023-01-19T00:17:26.156Z,95.01
2023-01-19T00:18:26.154Z,95.06
2023-01-19T00:19:26.146Z,95.22
2023-01-19T00:20:26.144Z,94.64
2023-01-19T00:21:26.131Z,94.38
2023-01-19T00:22:26.131Z,94.74
2023-01-19T00:23:26.123Z,95.16
2023-01-19T00:24:26.123Z,95.37
2023-01-19T00:26:27.404Z,95.26
2023-01-19T00:27:28.228Z,95.06
2023-01-19T00:28:27.363Z,94.95
2023-01-19T00:29:27.356Z,94.95
2023-01-19T00:30:27.357Z,95.06
2023-01-19T00:31:27.370Z,94.95
2023-01-19T00:32:27.347Z,94.84
2023-01-19T00:33:27.328Z,95.58
2023-01-19T00:34:27.322Z,95.26
2023-01-19T00:35:27.327Z,94.99
2023-01-19T00:36:27.302Z,94.95
2023-01-19T00:37:27.299Z,95.06
2023-01-19T00:38:27.310Z,94.64
2023-01-19T00:39:27.280Z,94.74
2023-01-19T00:40:27.272Z,94.53
2023-01-19T00:41:28.369Z,94.42
2023-01-19T00:42:28.351Z,93.83
2023-01-19T00:43:28.346Z,94.25
2023-01-19T00:44:28.341Z,94.89
2023-01-19T00:45:28.359Z,94.99
2023-01-19T00:46:29.243Z,95.84
2023-01-19T00:47:28.316Z,96.32
2023-01-19T00:48:28.323Z,96.43
2023-01-19T00:49:28.306Z,95.69
2023-01-19T00:50:28.291Z,96.00
2023-01-19T00:51:29.299Z,96.00
2023-01-19T00:52:28.288Z,95.64
2023-01-19T00:53:28.271Z,96.07
2023-01-19T00:54:28.272Z,96.39
2023-01-19T00:55:28.257Z,96.91
2023-01-19T00:56:28.257Z,97.33
2023-01-19T00:57:28.244Z,96.39
2023-01-19T00:58:28.230Z,96.23
2023-01-19T00:59:28.224Z,96.03
2023-01-19T01:00:28.227Z,96.03
2023-01-19T01:01:45.866Z,96.77
2023-01-19T01:02:29.423Z,96.55
2023-01-19T01:03:29.194Z,96.77
2023-01-19T01:04:28.194Z,96.03
2023-01-19T01:05:28.181Z,96.03
2023-01-19T01:06:28.178Z,95.71
2023-01-19T01:07:28.740Z,96.45
2023-01-19T01:08:28.162Z,95.92
2023-01-19T01:09:28.171Z,95.33
2023-01-19T01:10:28.161Z,94.97
2023-01-19T01:11:28.141Z,94.55
2023-01-19T01:12:28.175Z,95.12
2023-01-19T01:13:28.483Z,95.22
2023-01-19T01:14:28.120Z,95.22
2023-01-19T01:15:28.161Z,95.54
2023-01-19T01:16:28.108Z,95.12
2023-01-19T01:17:28.091Z,95.33
2023-01-19T01:18:28.081Z,95.43
2023-01-19T01:19:28.068Z,95.75
2023-01-19T01:20:28.288Z,95.86
2023-01-19T01:21:28.058Z,95.96
2023-01-19T01:22:28.057Z,96.07
2023-01-19T01:23:28.072Z,96.49
2023-01-19T01:24:28.043Z,96.39
2023-01-19T01:25:28.033Z,95.96
2023-01-19T01:26:28.016Z,95.86
2023-01-19T01:27:28.002Z,96.17
2023-01-19T01:28:27.999Z,96.28
2023-01-19T01:29:27.992Z,95.86
2023-01-19T01:30:28.023Z,96.07
2023-01-19T01:31:28.003Z,96.28
2023-01-19T01:32:27.959Z,96.17
2023-01-19T01:33:40.638Z,95.54
2023-01-19T01:34:28.947Z,96.39
2023-01-19T01:35:27.951Z,95.54
2023-01-19T01:36:27.930Z,95.43
2023-01-19T01:37:27.929Z,95.86
2023-01-19T01:38:27.918Z,96.70
2023-01-19T01:39:27.921Z,96.59
2023-01-19T01:40:27.907Z,95.86
2023-01-19T01:41:27.921Z,96.39
2023-01-19T01:42:27.906Z,95.64
2023-01-19T01:43:27.883Z,96.17
2023-01-19T01:44:27.873Z,96.59
2023-01-19T01:45:27.880Z,96.70
2023-01-19T01:46:28.770Z,96.39
2023-01-19T01:47:27.848Z,96.03
2023-01-19T01:48:27.841Z,96.97
2023-01-19T01:49:28.826Z,96.34
2023-01-19T01:50:27.842Z,96.07
2023-01-19T01:51:27.839Z,96.17
2023-01-19T01:52:27.824Z,96.17
2023-01-19T01:53:27.810Z,96.07
2023-01-19T01:54:27.800Z,96.23
2023-01-19T01:55:27.806Z,96.03
2023-01-19T01:56:27.792Z,95.96
2023-01-19T01:57:28.743Z,96.59
2023-01-19T01:58:27.782Z,96.07
2023-01-19T01:59:29.360Z,95.86
2023-01-19T02:00:27.766Z,95.92
2023-01-19T02:01:29.188Z,95.86
2023-01-19T02:02:27.741Z,95.81
2023-01-19T02:03:27.776Z,95.60
2023-01-19T02:04:27.725Z,95.71
2023-01-19T02:05:27.715Z,95.33
2023-01-19T02:06:27.714Z,95.07
2023-01-19T02:07:27.687Z,95.07
2023-01-19T02:08:27.688Z,94.90
2023-01-19T02:09:27.682Z,94.90
2023-01-19T02:10:27.721Z,95.81
2023-01-19T02:11:27.675Z,95.33
2023-01-19T02:12:27.656Z,95.81
2023-01-19T02:13:27.649Z,96.23
2023-01-19T02:14:27.651Z,96.45
2023-01-19T02:15:27.638Z,95.92
2023-01-19T02:16:27.714Z,96.03
2023-01-19T02:17:28.245Z,95.92
2023-01-19T02:18:27.622Z,95.71
2023-01-19T02:19:27.613Z,95.60
2023-01-19T02:20:27.604Z,96.66
2023-01-19T02:21:27.608Z,96.97
2023-01-19T02:22:27.589Z,96.45
2023-01-19T02:23:27.577Z,96.45
2023-01-19T02:24:27.579Z,96.66
2023-01-19T02:25:27.571Z,96.30
2023-01-19T02:26:27.569Z,96.55
2023-01-19T02:27:27.543Z,97.03
2023-01-19T02:28:27.542Z,96.72
2023-01-19T02:29:27.528Z,96.51
2023-01-19T02:30:27.531Z,96.41
2023-01-19T02:31:27.519Z,96.19
2023-01-19T02:32:27.514Z,95.98
2023-01-19T02:33:27.498Z,95.87
2023-01-19T02:34:27.487Z,96.30
2023-01-19T02:35:27.479Z,96.66
2023-01-19T02:36:27.499Z,95.39
2023-01-19T02:37:30.336Z,94.86
2023-01-19T02:38:27.456Z,94.61
2023-01-19T02:39:27.455Z,95.07
2023-01-19T02:40:27.443Z,95.07
2023-01-19T02:41:27.462Z,94.86
2023-01-19T02:42:27.421Z,95.39
2023-01-19T02:43:27.429Z,95.86
2023-01-19T02:44:27.406Z,95.92
2023-01-19T02:45:27.419Z,95.81
2023-01-19T02:46:27.804Z,95.71
2023-01-19T02:47:28.243Z,95.81
2023-01-19T02:48:27.383Z,95.81
2023-01-19T02:49:27.382Z,96.55
2023-01-19T02:50:27.383Z,95.45
2023-01-19T02:51:27.383Z,95.87
2023-01-19T02:52:27.352Z,95.81
2023-01-19T02:53:27.352Z,95.81
2023-01-19T02:54:27.336Z,95.60
2023-01-19T02:55:27.329Z,95.71
2023-01-19T02:56:28.352Z,95.81
2023-01-19T02:57:27.310Z,95.67
2023-01-19T02:58:27.311Z,95.87
2023-01-19T02:59:27.296Z,95.67
2023-01-19T03:00:27.286Z,95.07
2023-01-19T03:01:27.365Z,94.86
2023-01-19T03:02:27.345Z,94.97
2023-01-19T03:03:27.263Z,94.55
2023-01-19T03:04:27.274Z,93.60
2023-01-19T03:05:27.272Z,94.38
2023-01-19T03:06:27.252Z,93.64
2023-01-19T03:07:27.242Z,93.43
2023-01-19T03:08:27.232Z,94.42
2023-01-19T03:09:27.244Z,93.57
2023-01-19T03:10:27.828Z,94.84
2023-01-19T03:11:27.247Z,95.06
2023-01-19T03:12:27.222Z,95.90
2023-01-19T03:13:27.192Z,95.90
2023-01-19T03:14:27.189Z,96.11
2023-01-19T03:15:27.249Z,96.53
2023-01-19T03:16:27.197Z,95.79
2023-01-19T03:17:27.171Z,95.86
2023-01-19T03:18:27.160Z,96.07
2023-01-19T03:19:27.188Z,96.59
2023-01-19T03:20:27.138Z,96.70
2023-01-19T03:21:27.141Z,97.23
2023-01-19T03:22:27.135Z,97.19
2023-01-19T03:23:27.116Z,96.77
2023-01-19T03:24:27.106Z,95.71
2023-01-19T03:25:27.129Z,96.45
2023-01-19T03:26:27.090Z,96.03
2023-01-19T03:27:27.123Z,95.92
2023-01-19T03:28:27.084Z,96.19
2023-01-19T03:29:27.073Z,95.98
2023-01-19T03:30:27.091Z,95.87
2023-01-19T03:31:27.054Z,95.94
2023-01-19T03:32:28.048Z,95.87
2023-01-19T03:33:27.080Z,96.15
2023-01-19T03:34:27.028Z,96.25
2023-01-19T03:35:27.029Z,95.47
2023-01-19T03:36:27.031Z,95.57
2023-01-19T03:37:27.012Z,95.05
2023-01-19T03:38:26.988Z,94.63
2023-01-19T03:39:27.994Z,95.01
2023-01-19T03:40:26.982Z,95.11
2023-01-19T03:41:26.972Z,95.43
2023-01-19T03:42:26.967Z,96.27
2023-01-19T03:43:26.953Z,96.06
2023-01-19T03:44:26.956Z,95.70
2023-01-19T03:45:26.948Z,95.70
2023-01-19T03:46:27.037Z,96.29
2023-01-19T03:47:26.935Z,95.66
2023-01-19T03:48:26.919Z,95.76
2023-01-19T03:49:26.914Z,96.35
2023-01-19T03:50:26.906Z,95.51
2023-01-19T03:51:26.906Z,95.62
2023-01-19T03:52:26.920Z,95.99
2023-01-19T03:53:26.882Z,95.26
2023-01-19T03:54:26.873Z,94.94
2023-01-19T03:55:26.863Z,94.52
2023-01-19T03:56:26.858Z,94.69
2023-01-19T03:57:26.855Z,94.48
2023-01-19T03:58:26.841Z,94.75
2023-01-19T03:59:26.844Z,94.58
2023-01-19T04:00:26.831Z,93.91
2023-01-19T04:01:26.933Z,94.43
2023-01-19T04:02:26.896Z,93.13
2023-01-19T04:03:26.837Z,93.02
2023-01-19T04:04:26.815Z,93.70
2023-01-19T04:05:26.798Z,93.13
2023-01-19T04:06:26.794Z,92.61
2023-01-19T04:07:26.768Z,92.77
2023-01-19T04:08:27.775Z,92.61
2023-01-19T04:09:27.759Z,92.46
2023-01-19T04:10:26.774Z,93.09
2023-01-19T04:11:26.795Z,92.77
2023-01-19T04:12:26.734Z,92.35
2023-01-19T04:13:26.729Z,92.14
2023-01-19T04:14:26.721Z,91.94
2023-01-19T04:15:26.715Z,91.68
2023-01-19T04:16:26.712Z,92.25
2023-01-19T04:17:26.699Z,93.05
2023-01-19T04:18:26.694Z,91.68
2023-01-19T04:19:27.263Z,91.68
2023-01-19T04:20:26.669Z,92.73
2023-01-19T04:21:26.665Z,91.68
2023-01-19T04:22:26.664Z,91.96
2023-01-19T04:23:26.655Z,93.05
2023-01-19T04:24:26.637Z,92.69
2023-01-19T04:25:26.642Z,91.85
2023-01-19T04:26:26.627Z,92.27
2023-01-19T04:27:26.610Z,91.12
2023-01-19T04:28:26.625Z,91.12
2023-01-19T04:29:26.599Z,91.43
2023-01-19T04:30:26.594Z,92.16
2023-01-19T04:31:26.637Z,91.53
2023-01-19T04:32:26.576Z,92.06
2023-01-19T04:33:26.569Z,92.16
2023-01-19T04:34:26.586Z,91.28
2023-01-19T04:35:26.570Z,91.12
2023-01-19T04:36:26.572Z,90.91
2023-01-19T04:37:27.545Z,91.33
2023-01-19T04:38:26.633Z,91.08
2023-01-19T04:39:26.514Z,90.34
2023-01-19T04:40:26.526Z,91.50
2023-01-19T04:41:26.509Z,92.33
2023-01-19T04:42:26.508Z,91.81
2023-01-19T04:43:26.481Z,90.34
2023-01-19T04:44:26.471Z,90.97
2023-01-19T04:45:26.467Z,90.55
2023-01-19T04:46:26.555Z,90.23
2023-01-19T04:47:27.340Z,90.97
2023-01-19T04:48:26.447Z,90.03
2023-01-19T04:49:26.437Z,90.23
2023-01-19T04:50:26.428Z,89.19
2023-01-19T04:51:26.432Z,90.23
2023-01-19T04:52:26.443Z,90.03
2023-01-19T04:53:26.416Z,90.55
2023-01-19T04:54:26.466Z,90.34
2023-01-19T04:55:26.425Z,90.97
2023-01-19T04:56:26.403Z,91.18
2023-01-19T04:57:26.373Z,90.34
2023-01-19T04:58:26.369Z,90.55
2023-01-19T04:59:26.399Z,89.88
2023-01-19T05:00:26.362Z,90.13
2023-01-19T05:01:26.478Z,90.03
2023-01-19T05:02:26.341Z,90.03
2023-01-19T05:03:26.690Z,89.98
2023-01-19T05:04:27.329Z,88.94
2023-01-19T05:05:26.312Z,89.09
2023-01-19T05:06:26.320Z,88.84
2023-01-19T05:07:26.299Z,89.09
2023-01-19T05:08:26.310Z,89.98
2023-01-19T05:09:26.293Z,89.82
2023-01-19T05:10:26.296Z,88.98
2023-01-19T05:11:26.285Z,88.87
2023-01-19T05:12:26.279Z,88.87
2023-01-19T05:13:26.258Z,89.40
2023-01-19T05:14:26.277Z,89.61
2023-01-19T05:15:26.243Z,88.98
2023-01-19T05:16:26.341Z,89.09
2023-01-19T05:17:26.232Z,89.40
2023-01-19T05:18:26.216Z,89.82
2023-01-19T05:19:26.211Z,90.03
2023-01-19T05:20:26.216Z,89.92
2023-01-19T05:21:26.204Z,89.50
2023-01-19T05:22:26.188Z,89.92
2023-01-19T05:23:26.239Z,90.03
2023-01-19T05:24:26.169Z,89.82
2023-01-19T05:25:26.156Z,90.03
2023-01-19T05:26:26.152Z,89.72
2023-01-19T05:27:26.158Z,89.92
2023-01-19T05:28:26.141Z,89.92
2023-01-19T05:29:26.156Z,90.13
2023-01-19T05:30:26.132Z,90.03
2023-01-19T05:31:26.259Z,90.03
2023-01-19T05:32:26.132Z,90.13
2023-01-19T05:33:26.095Z,89.72
2023-01-19T05:34:26.858Z,90.23
2023-01-19T05:35:35.401Z,89.92
2023-01-19T05:36:28.075Z,89.72
2023-01-19T05:37:26.067Z,89.92
2023-01-19T05:38:34.473Z,90.03
2023-01-19T05:39:28.777Z,90.13
2023-01-19T05:40:26.086Z,89.61
2023-01-19T05:41:26.032Z,89.29
2023-01-19T05:42:26.032Z,89.19
2023-01-19T05:43:26.023Z,89.25
2023-01-19T05:44:26.018Z,90.23
2023-01-19T05:45:26.001Z,90.03
2023-01-19T05:46:26.057Z,90.03
2023-01-19T05:47:27.843Z,90.51
2023-01-19T05:48:25.995Z,90.34
2023-01-19T05:49:25.980Z,89.88
2023-01-19T05:50:25.969Z,89.88
2023-01-19T05:51:25.956Z,89.04
2023-01-19T05:52:25.944Z,89.25
2023-01-19T05:53:25.962Z,88.94
2023-01-19T05:54:25.950Z,88.52
2023-01-19T05:55:25.929Z,88.69
2023-01-19T05:56:25.936Z,88.69
2023-01-19T05:57:25.912Z,88.79
2023-01-19T05:58:25.898Z,89.36
2023-01-19T05:59:25.895Z,89.22
2023-01-19T06:00:25.892Z,88.90
2023-01-19T06:01:25.930Z,88.37
2023-01-19T06:02:25.956Z,88.94
2023-01-19T06:03:25.912Z,89.04
2023-01-19T06:04:25.847Z,88.90
2023-01-19T06:05:26.875Z,88.17
2023-01-19T06:06:25.838Z,88.37
2023-01-19T06:07:28.212Z,88.06
2023-01-19T06:08:25.834Z,89.04
2023-01-19T06:09:25.820Z,88.69
2023-01-19T06:10:25.823Z,88.90
2023-01-19T06:11:25.793Z,88.94
2023-01-19T06:12:25.804Z,88.90
2023-01-19T06:13:25.787Z,88.90
2023-01-19T06:14:25.787Z,88.59
2023-01-19T06:15:25.778Z,88.69
2023-01-19T06:16:25.837Z,88.79
2023-01-19T06:17:25.750Z,88.59
2023-01-19T06:18:25.742Z,88.69
2023-01-19T06:19:25.750Z,88.90
2023-01-19T06:20:25.738Z,88.90
2023-01-19T06:21:25.722Z,88.90
2023-01-19T06:22:26.721Z,88.69
2023-01-19T06:23:25.718Z,88.48
2023-01-19T06:24:26.723Z,88.69
2023-01-19T06:25:25.692Z,88.17
2023-01-19T06:26:25.691Z,88.06
2023-01-19T06:27:25.679Z,88.27
2023-01-19T06:28:25.694Z,87.96
2023-01-19T06:29:27.039Z,87.85
2023-01-19T06:30:25.661Z,88.06
2023-01-19T06:31:26.317Z,88.37
2023-01-19T06:32:25.643Z,88.27
2023-01-19T06:33:25.623Z,88.27
2023-01-19T06:34:25.613Z,88.06
2023-01-19T06:35:25.616Z,88.06
2023-01-19T06:36:25.594Z,88.27
2023-01-19T06:37:25.588Z,88.27
2023-01-19T06:38:25.612Z,88.27
2023-01-19T06:39:25.585Z,88.37
2023-01-19T06:40:26.340Z,88.06
2023-01-19T06:41:25.577Z,88.48
2023-01-19T06:42:25.563Z,88.59
2023-01-19T06:43:25.555Z,88.69
2023-01-19T06:44:25.545Z,88.37
2023-01-19T06:45:26.391Z,88.17
2023-01-19T06:46:26.284Z,87.96
2023-01-19T06:47:25.537Z,87.96
2023-01-19T06:48:25.521Z,87.99
2023-01-19T06:49:25.505Z,87.96
2023-01-19T06:50:26.277Z,88.48
2023-01-19T06:51:25.513Z,88.48
2023-01-19T06:52:25.480Z,88.27
2023-01-19T06:53:25.470Z,88.17
2023-01-19T06:54:25.473Z,88.90
2023-01-19T06:55:25.463Z,88.69
2023-01-19T06:56:25.451Z,88.79
2023-01-19T06:57:25.439Z,88.48
2023-01-19T06:58:25.447Z,88.79
2023-01-19T06:59:25.871Z,88.69
2023-01-19T07:00:25.417Z,88.90
2023-01-19T07:01:25.518Z,89.32
2023-01-19T07:02:27.952Z,88.79
2023-01-19T07:03:25.494Z,88.44
2023-01-19T07:04:26.279Z,88.34
2023-01-19T07:05:25.380Z,88.86
2023-01-19T07:06:26.362Z,88.23
2023-01-19T07:07:25.362Z,88.34
2023-01-19T07:08:25.361Z,88.44
2023-01-19T07:09:25.360Z,88.65
2023-01-19T07:10:25.351Z,88.34
2023-01-19T07:11:32.296Z,88.54
2023-01-19T07:12:26.330Z,89.07
2023-01-19T07:13:25.337Z,88.96
2023-01-19T07:14:25.303Z,88.82
2023-01-19T07:15:25.334Z,88.75
2023-01-19T07:16:25.380Z,88.50
2023-01-19T07:17:25.286Z,89.07
2023-01-19T07:18:25.288Z,88.50
2023-01-19T07:19:25.280Z,88.82
2023-01-19T07:20:25.266Z,88.86
2023-01-19T07:21:25.267Z,88.96
2023-01-19T07:22:25.252Z,88.92
2023-01-19T07:23:25.236Z,89.70
2023-01-19T07:24:25.295Z,89.07
2023-01-19T07:25:25.252Z,88.75
2023-01-19T07:26:25.228Z,88.82
2023-01-19T07:27:25.242Z,88.82
2023-01-19T07:28:25.203Z,88.82
2023-01-19T07:29:25.199Z,88.82
2023-01-19T07:30:25.228Z,88.82
2023-01-19T07:31:25.282Z,88.71
2023-01-19T07:32:25.188Z,88.82
2023-01-19T07:33:25.174Z,88.09
2023-01-19T07:34:25.207Z,88.71
2023-01-19T07:35:25.145Z,88.50
2023-01-19T07:36:25.859Z,88.19
2023-01-19T07:37:25.788Z,88.71
2023-01-19T07:38:25.122Z,88.82
2023-01-19T07:39:25.366Z,88.50
2023-01-19T07:40:25.113Z,88.78
2023-01-19T07:41:25.098Z,88.19
2023-01-19T07:42:25.093Z,88.29
2023-01-19T07:43:25.079Z,88.40
2023-01-19T07:44:25.093Z,88.09
2023-01-19T07:45:27.149Z,88.29
2023-01-19T07:46:25.215Z,88.29
2023-01-19T07:47:25.054Z,88.61
2023-01-19T07:48:25.783Z,88.71
2023-01-19T07:49:25.045Z,88.82
2023-01-19T07:50:25.033Z,88.82
2023-01-19T07:51:25.026Z,88.29
2023-01-19T07:52:25.014Z,88.15
2023-01-19T07:53:25.038Z,88.36
2023-01-19T07:54:25.000Z,88.46
2023-01-19T07:55:24.997Z,88.36
2023-01-19T07:56:24.988Z,88.46
2023-01-19T07:57:24.984Z,88.15
2023-01-19T07:58:24.977Z,88.11
2023-01-19T07:59:24.977Z,87.80
2023-01-19T08:00:24.984Z,87.90
2023-01-19T08:01:25.866Z,88.01
2023-01-19T08:02:26.932Z,88.32
2023-01-19T08:03:24.936Z,88.07
2023-01-19T08:04:24.938Z,87.76
2023-01-19T08:05:26.788Z,87.27
2023-01-19T08:06:27.792Z,87.45
2023-01-19T08:07:24.918Z,86.61
2023-01-19T08:08:24.909Z,86.51
2023-01-19T08:09:24.881Z,85.42
2023-01-19T08:10:24.930Z,86.19
2023-01-19T08:11:25.858Z,85.63
2023-01-19T08:12:26.782Z,86.15
2023-01-19T08:13:24.851Z,86.29
2023-01-19T08:14:24.876Z,86.25
2023-01-19T08:15:25.051Z,86.36
2023-01-19T08:16:24.843Z,86.15
2023-01-19T08:17:24.831Z,86.15
2023-01-19T08:18:24.813Z,86.36
2023-01-19T08:19:24.805Z,86.32
2023-01-19T08:20:24.873Z,86.21
2023-01-19T08:21:24.799Z,85.49
2023-01-19T08:22:24.795Z,85.17
2023-01-19T08:23:24.787Z,85.06
2023-01-19T08:24:25.297Z,84.92
2023-01-19T08:25:24.780Z,85.34
2023-01-19T08:26:24.753Z,84.09
2023-01-19T08:27:24.780Z,84.40
2023-01-19T08:28:24.893Z,84.30
2023-01-19T08:29:24.720Z,83.57
2023-01-19T08:30:24.718Z,83.57
2023-01-19T08:31:25.162Z,83.98
2023-01-19T08:32:26.445Z,83.74
2023-01-19T08:33:24.701Z,83.98
2023-01-19T08:34:24.967Z,83.84
2023-01-19T08:35:24.684Z,83.63
2023-01-19T08:36:24.667Z,83.28
2023-01-19T08:37:24.662Z,83.39
2023-01-19T08:38:24.697Z,82.97
2023-01-19T08:39:24.648Z,82.87
2023-01-19T08:40:24.651Z,82.45
2023-01-19T08:41:24.633Z,82.34
2023-01-19T08:42:24.636Z,82.55
2023-01-19T08:43:24.615Z,81.99
2023-01-19T08:44:24.616Z,81.58
2023-01-19T08:45:25.283Z,81.68
2023-01-19T08:46:24.651Z,81.12
2023-01-19T08:47:24.622Z,81.23
2023-01-19T08:48:24.592Z,80.46
2023-01-19T08:49:24.564Z,80.67
2023-01-19T08:50:24.593Z,80.15
2023-01-19T08:51:24.569Z,79.52
2023-01-19T08:52:24.548Z,79.91
2023-01-19T08:53:24.538Z,79.63
2023-01-19T08:54:26.296Z,79.49
2023-01-19T08:55:24.514Z,78.86
2023-01-19T08:56:24.515Z,79.59
2023-01-19T08:57:24.506Z,79.63
2023-01-19T08:58:24.529Z,79.94
2023-01-19T08:59:24.495Z,79.63
2023-01-19T09:00:24.480Z,79.63
2023-01-19T09:01:24.584Z,79.87
2023-01-19T09:02:24.527Z,80.22
2023-01-19T09:04:31.296Z,81.26
2023-01-19T09:05:32.290Z,81.37
2023-01-19T09:06:32.377Z,81.47
2023-01-19T09:07:33.997Z,81.58
2023-01-19T09:08:32.401Z,81.26
2023-01-19T09:09:32.356Z,81.47
2023-01-19T09:10:32.371Z,81.47
2023-01-19T09:11:32.357Z,81.47
2023-01-19T09:12:32.346Z,81.89
2023-01-19T09:13:32.674Z,81.79
2023-01-19T09:14:32.339Z,81.89
2023-01-19T09:15:32.314Z,81.58
2023-01-19T09:16:32.304Z,81.37
2023-01-19T09:17:33.227Z,81.54
2023-01-19T09:18:32.310Z,81.16
2023-01-19T09:19:33.753Z,81.37
2023-01-19T09:20:32.272Z,80.40
2023-01-19T09:21:33.270Z,80.91
2023-01-19T09:22:32.250Z,80.71
2023-01-19T09:23:32.242Z,79.83
2023-01-19T09:24:33.167Z,79.32
2023-01-19T09:25:32.238Z,79.42
2023-01-19T09:26:33.163Z,78.76
2023-01-19T09:27:33.219Z,78.66
2023-01-19T09:28:32.225Z,78.34
2023-01-19T09:29:32.231Z,79.03
2023-01-19T09:30:34.792Z,78.41
2023-01-19T09:31:32.225Z,78.69
2023-01-19T09:32:32.181Z,77.65
2023-01-19T09:33:32.181Z,76.51
2023-01-19T09:34:32.179Z,77.13
2023-01-19T09:35:32.156Z,76.40
2023-01-19T09:36:32.160Z,76.61
2023-01-19T09:37:32.137Z,77.03
2023-01-19T09:38:32.143Z,76.57
2023-01-19T09:39:32.160Z,76.06
2023-01-19T09:40:32.143Z,75.85
2023-01-19T09:41:32.110Z,76.09
2023-01-19T09:42:32.103Z,75.78
2023-01-19T09:43:32.106Z,75.88
2023-01-19T09:44:32.087Z,76.61
2023-01-19T09:45:32.107Z,76.82
2023-01-19T09:46:32.227Z,76.51
2023-01-19T09:47:32.082Z,75.67
2023-01-19T09:48:32.068Z,76.29
2023-01-19T09:49:32.169Z,75.81
2023-01-19T09:50:32.062Z,75.88
2023-01-19T09:51:32.035Z,76.09
2023-01-19T09:52:32.049Z,76.64
2023-01-19T09:53:32.012Z,76.54
2023-01-19T09:54:32.018Z,76.75
2023-01-19T09:55:32.009Z,76.75
2023-01-19T09:56:32.743Z,76.85
2023-01-19T09:57:31.986Z,76.85
2023-01-19T09:58:31.977Z,76.47
2023-01-19T09:59:31.995Z,77.61
2023-01-19T10:00:31.985Z,78.45
2023-01-19T10:01:35.147Z,78.45
2023-01-19T10:02:31.945Z,78.34
2023-01-19T10:03:31.947Z,78.34
2023-01-19T10:04:31.946Z,78.24
2023-01-19T10:05:31.935Z,78.86
2023-01-19T10:06:32.924Z,78.49
2023-01-19T10:07:31.910Z,78.97
2023-01-19T10:08:31.894Z,78.45
2023-01-19T10:09:31.899Z,79.07
2023-01-19T10:10:31.900Z,78.38
2023-01-19T10:11:41.875Z,78.86
2023-01-19T10:12:33.931Z,78.80
2023-01-19T10:13:31.854Z,78.94
2023-01-19T10:14:32.852Z,79.87
2023-01-19T10:15:31.853Z,79.56
2023-01-19T10:16:31.858Z,79.42
2023-01-19T10:17:31.844Z,79.52
2023-01-19T10:18:31.851Z,80.08
2023-01-19T10:19:31.816Z,80.29
2023-01-19T10:20:31.883Z,80.19
2023-01-19T10:21:32.782Z,80.57
2023-01-19T10:22:32.792Z,80.05
2023-01-19T10:23:33.675Z,79.83
2023-01-19T10:24:33.809Z,79.94
2023-01-19T10:25:31.905Z,80.36
2023-01-19T10:26:32.769Z,81.19
2023-01-19T10:27:32.758Z,81.65
2023-01-19T10:28:31.790Z,81.92
2023-01-19T10:29:31.753Z,82.86
2023-01-19T10:30:31.752Z,82.96
2023-01-19T10:31:33.750Z,83.58
2023-01-19T10:32:31.737Z,84.21
2023-01-19T10:33:31.712Z,84.35
2023-01-19T10:34:31.741Z,85.74
2023-01-19T10:35:31.731Z,85.08
2023-01-19T10:36:31.679Z,86.27
2023-01-19T10:37:31.693Z,87.41
2023-01-19T10:38:31.669Z,87.52
2023-01-19T10:39:32.158Z,88.14
2023-01-19T10:40:31.659Z,88.56
2023-01-19T10:41:31.682Z,89.39
2023-01-19T10:42:31.662Z,90.33
2023-01-19T10:43:31.654Z,91.20
2023-01-19T10:44:31.795Z,91.41
2023-01-19T10:45:34.879Z,92.03
2023-01-19T10:46:31.653Z,92.46
2023-01-19T10:47:32.217Z,93.02
2023-01-19T10:48:31.585Z,93.44
2023-01-19T10:49:31.697Z,93.54
2023-01-19T10:50:31.578Z,93.54
2023-01-19T10:51:31.564Z,93.96
2023-01-19T10:52:31.569Z,94.00
2023-01-19T10:53:33.180Z,94.52
2023-01-19T10:54:31.607Z,94.42
2023-01-19T10:55:31.573Z,95.04
2023-01-19T10:56:31.518Z,95.46
2023-01-19T10:57:31.618Z,94.21
2023-01-19T10:58:31.511Z,95.25
2023-01-19T10:59:31.577Z,94.35
2023-01-19T11:00:31.529Z,95.46
2023-01-19T11:01:31.679Z,95.67
2023-01-19T11:02:31.705Z,95.25
2023-01-19T11:03:31.555Z,95.50
2023-01-19T11:04:31.512Z,95.25
2023-01-19T11:05:31.594Z,95.82
2023-01-19T11:06:32.224Z,96.09
2023-01-19T11:07:31.451Z,96.09
2023-01-19T11:08:31.495Z,96.61
2023-01-19T11:09:31.434Z,95.67
2023-01-19T11:10:31.449Z,96.50
2023-01-19T11:11:31.416Z,95.36
2023-01-19T11:12:31.407Z,95.56
2023-01-19T11:13:31.417Z,96.19
2023-01-19T11:14:31.378Z,96.50
2023-01-19T11:15:32.362Z,96.40
2023-01-19T11:16:31.435Z,95.25
2023-01-19T11:17:32.311Z,95.21
2023-01-19T11:18:31.454Z,96.56
2023-01-19T11:19:31.338Z,96.46
2023-01-19T11:20:31.352Z,95.42
2023-01-19T11:21:33.282Z,95.42
2023-01-19T11:22:31.331Z,95.31
2023-01-19T11:23:31.781Z,95.31
2023-01-19T11:24:31.303Z,95.52
2023-01-19T11:26:38.638Z,95.21
2023-01-19T11:27:38.658Z,95.52
2023-01-19T11:28:38.674Z,94.85
2023-01-19T11:29:38.625Z,94.43
2023-01-19T11:30:39.497Z,94.43
2023-01-19T11:31:39.741Z,94.33
2023-01-19T11:32:39.724Z,94.81
2023-01-19T11:33:39.780Z,94.54
2023-01-19T11:34:40.713Z,94.23
2023-01-19T11:35:43.046Z,94.60
2023-01-19T11:36:39.671Z,94.54
2023-01-19T11:37:40.682Z,94.60
2023-01-19T11:38:39.675Z,94.75
2023-01-19T11:39:39.653Z,94.85
2023-01-19T11:40:40.512Z,94.33
2023-01-19T11:41:40.590Z,95.12
2023-01-19T11:43:49.212Z,94.23
2023-01-19T11:44:45.970Z,94.33
2023-01-19T11:45:46.007Z,94.96
2023-01-19T11:46:47.470Z,94.54
2023-01-19T11:47:47.152Z,94.69
2023-01-19T11:48:47.051Z,94.27
2023-01-19T11:49:47.018Z,94.79
2023-01-19T11:50:47.008Z,94.79
2023-01-19T11:51:47.057Z,95.42
2023-01-19T21:25:43.272Z,94.98
2023-01-19T21:26:35.423Z,95.61
2023-01-19T21:27:35.422Z,96.34
2023-01-19T21:28:35.409Z,96.03
2023-01-19T21:29:35.399Z,96.03
2023-01-19T21:30:36.502Z,96.13
2023-01-19T21:31:36.765Z,96.13
2023-01-19T21:32:36.499Z,96.23
2023-01-19T21:33:36.529Z,96.44
2023-01-19T21:34:37.169Z,96.70
2023-01-19T21:35:37.247Z,96.55
2023-01-19T21:36:36.463Z,96.17
2023-01-19T21:37:36.433Z,96.17
2023-01-19T21:38:37.246Z,96.23
2023-01-19T21:39:36.421Z,96.03
2023-01-19T21:40:36.399Z,96.03
2023-01-19T21:41:36.434Z,96.23
2023-01-19T21:42:37.245Z,95.72
2023-01-19T21:43:36.394Z,95.86
2023-01-19T21:44:36.384Z,95.61
2023-01-19T21:45:36.398Z,95.40
2023-01-19T21:46:36.357Z,95.97
2023-01-19T21:47:36.362Z,96.17
2023-01-19T21:48:36.350Z,96.28
2023-01-19T21:49:36.340Z,96.03
2023-01-19T21:50:36.326Z,96.28
2023-01-19T21:51:36.325Z,96.13
2023-01-19T21:52:36.318Z,96.07
2023-01-19T21:53:36.345Z,96.07
2023-01-19T21:54:36.301Z,96.03
2023-01-19T21:55:36.299Z,96.34
2023-01-19T21:56:36.281Z,96.13
2023-01-19T21:57:36.358Z,95.61
2023-01-19T21:58:36.275Z,95.55
2023-01-19T21:59:36.281Z,95.92
2023-01-19T22:00:36.281Z,95.97
2023-01-19T22:01:36.418Z,95.72
2023-01-19T22:02:39.415Z,95.61
2023-01-19T22:03:37.294Z,95.72
2023-01-19T22:04:38.777Z,95.29
2023-01-19T22:06:13.228Z,95.09
2023-01-19T22:06:36.836Z,95.40
2023-01-19T22:07:36.216Z,94.88
2023-01-19T22:08:36.198Z,94.98
2023-01-19T22:10:09.254Z,94.88
2023-01-19T22:10:36.170Z,95.13
2023-01-19T22:11:36.156Z,95.19
2023-01-19T22:12:36.721Z,94.98
2023-01-19T22:13:36.144Z,95.50
2023-01-19T22:14:36.128Z,94.88
2023-01-19T22:15:37.818Z,94.88
2023-01-19T22:16:36.906Z,95.09
2023-01-19T22:17:36.142Z,95.61
2023-01-19T22:18:36.181Z,94.78
2023-01-19T22:19:39.738Z,94.78
2023-01-19T22:20:36.085Z,94.78
2023-01-19T22:21:39.811Z,94.46
2023-01-19T22:22:36.076Z,94.98
2023-01-19T22:23:37.788Z,95.61
2023-01-19T22:24:37.808Z,95.13
2023-01-19T22:25:36.044Z,94.78
2023-01-19T22:26:36.811Z,95.61
2023-01-19T22:27:39.748Z,95.19
2023-01-19T22:28:36.029Z,94.98
2023-01-19T22:29:36.020Z,94.98